sensor_id;sensor_type;location;lat;lon;timestamp;pressure;altitude;pressure_sealevel;temperature;humidity
9139;BME280;4604;48.616;9.548;2024-01-15T00:00:56;95848.59;;;-2.60;94.49
9139;BME280;4604;48.616;9.548;2024-01-15T00:03:22;95855.47;;;-2.45;94.02
9139;BME280;4604;48.616;9.548;2024-01-15T00:05:49;95851.50;;;-2.66;94.16
9139;BME280;4604;48.616;9.548;2024-01-15T00:08:16;95835.59;;;-2.74;94.26
9139;BME280;4604;48.616;9.548;2024-01-15T00:10:42;95843.28;;;-2.73;93.82
9139;BME280;4604;48.616;9.548;2024-01-15T00:13:10;95848.75;;;-2.63;92.75
9139;BME280;4604;48.616;9.548;2024-01-15T00:15:37;95849.59;;;-2.63;92.99
9139;BME280;4604;48.616;9.548;2024-01-15T00:18:04;95835.25;;;-2.52;91.98
9139;BME280;4604;48.616;9.548;2024-01-15T00:20:31;95836.75;;;-2.48;92.62
9139;BME280;4604;48.616;9.548;2024-01-15T00:22:57;95835.72;;;-2.46;92.75
9139;BME280;4604;48.616;9.548;2024-01-15T00:25:24;95837.00;;;-2.69;93.00
9139;BME280;4604;48.616;9.548;2024-01-15T00:27:51;95835.56;;;-2.59;91.98
9139;BME280;4604;48.616;9.548;2024-01-15T00:30:19;95839.94;;;-2.29;89.64
9139;BME280;4604;48.616;9.548;2024-01-15T00:32:45;95825.81;;;-2.23;89.26
9139;BME280;4604;48.616;9.548;2024-01-15T00:35:12;95822.44;;;-2.09;89.30
9139;BME280;4604;48.616;9.548;2024-01-15T00:37:39;95822.09;;;-1.89;88.78
9139;BME280;4604;48.616;9.548;2024-01-15T00:40:06;95825.16;;;-1.82;87.38
9139;BME280;4604;48.616;9.548;2024-01-15T00:42:34;95825.25;;;-1.84;88.01
9139;BME280;4604;48.616;9.548;2024-01-15T00:45:00;95815.75;;;-1.69;87.41
9139;BME280;4604;48.616;9.548;2024-01-15T00:47:29;95813.53;;;-1.61;86.35
9139;BME280;4604;48.616;9.548;2024-01-15T00:49:55;95790.63;;;-1.67;85.62
9139;BME280;4604;48.616;9.548;2024-01-15T00:52:22;95809.75;;;-1.41;84.87
9139;BME280;4604;48.616;9.548;2024-01-15T00:54:48;95817.03;;;-1.33;84.04
9139;BME280;4604;48.616;9.548;2024-01-15T00:57:15;95808.03;;;-1.27;83.15
9139;BME280;4604;48.616;9.548;2024-01-15T00:59:44;95824.50;;;-1.14;82.02
9139;BME280;4604;48.616;9.548;2024-01-15T01:02:11;95791.50;;;-1.25;81.81
9139;BME280;4604;48.616;9.548;2024-01-15T01:04:39;95830.16;;;-1.22;82.95
9139;BME280;4604;48.616;9.548;2024-01-15T01:07:05;95816.63;;;-1.13;82.00
9139;BME280;4604;48.616;9.548;2024-01-15T01:09:32;95831.59;;;-1.18;82.96
9139;BME280;4604;48.616;9.548;2024-01-15T01:11:59;95827.31;;;-1.32;83.89
9139;BME280;4604;48.616;9.548;2024-01-15T01:14:25;95824.88;;;-1.35;84.04
9139;BME280;4604;48.616;9.548;2024-01-15T01:16:52;95826.63;;;-1.35;84.54
9139;BME280;4604;48.616;9.548;2024-01-15T01:19:19;95828.66;;;-1.26;84.42
9139;BME280;4604;48.616;9.548;2024-01-15T01:21:47;95834.66;;;-1.25;84.27
9139;BME280;4604;48.616;9.548;2024-01-15T01:24:13;95827.38;;;-1.33;84.64
9139;BME280;4604;48.616;9.548;2024-01-15T01:26:40;95842.63;;;-1.28;83.95
9139;BME280;4604;48.616;9.548;2024-01-15T01:29:07;95843.72;;;-1.33;84.93
9139;BME280;4604;48.616;9.548;2024-01-15T01:31:33;95839.22;;;-1.29;84.03
9139;BME280;4604;48.616;9.548;2024-01-15T01:34:00;95845.50;;;-1.33;84.19
9139;BME280;4604;48.616;9.548;2024-01-15T01:36:26;95843.09;;;-1.36;84.63
9139;BME280;4604;48.616;9.548;2024-01-15T01:38:54;95831.00;;;-1.36;84.03
9139;BME280;4604;48.616;9.548;2024-01-15T01:41:21;95839.75;;;-1.24;82.97
9139;BME280;4604;48.616;9.548;2024-01-15T01:43:49;95832.00;;;-1.24;82.76
9139;BME280;4604;48.616;9.548;2024-01-15T01:46:16;95831.59;;;-1.18;82.73
9139;BME280;4604;48.616;9.548;2024-01-15T01:48:43;95838.25;;;-1.14;82.00
9139;BME280;4604;48.616;9.548;2024-01-15T01:51:10;95825.31;;;-1.14;82.24
9139;BME280;4604;48.616;9.548;2024-01-15T01:53:38;95820.72;;;-1.23;82.57
9139;BME280;4604;48.616;9.548;2024-01-15T01:56:06;95835.03;;;-1.17;83.08
9139;BME280;4604;48.616;9.548;2024-01-15T01:58:33;95829.97;;;-1.19;82.54
9139;BME280;4604;48.616;9.548;2024-01-15T02:01:00;95839.00;;;-1.12;81.89
9139;BME280;4604;48.616;9.548;2024-01-15T02:03:27;95821.63;;;-1.10;82.10
9139;BME280;4604;48.616;9.548;2024-01-15T02:05:55;95833.72;;;-1.10;81.84
9139;BME280;4604;48.616;9.548;2024-01-15T02:08:22;95828.72;;;-1.13;82.42
9139;BME280;4604;48.616;9.548;2024-01-15T02:10:49;95826.50;;;-1.05;82.59
9139;BME280;4604;48.616;9.548;2024-01-15T02:13:17;95820.41;;;-1.04;82.13
9139;BME280;4604;48.616;9.548;2024-01-15T02:15:44;95842.88;;;-1.04;81.90
9139;BME280;4604;48.616;9.548;2024-01-15T02:18:10;95817.06;;;-1.06;81.53
9139;BME280;4604;48.616;9.548;2024-01-15T02:20:37;95826.13;;;-0.99;81.60
9139;BME280;4604;48.616;9.548;2024-01-15T02:23:08;95823.19;;;-1.07;81.81
9139;BME280;4604;48.616;9.548;2024-01-15T02:25:37;95818.84;;;-1.06;82.31
9139;BME280;4604;48.616;9.548;2024-01-15T02:28:05;95818.19;;;-1.10;82.11
9139;BME280;4604;48.616;9.548;2024-01-15T02:30:32;95824.75;;;-1.04;81.33
9139;BME280;4604;48.616;9.548;2024-01-15T02:33:00;95821.03;;;-1.00;81.86
9139;BME280;4604;48.616;9.548;2024-01-15T02:35:27;95822.16;;;-1.04;82.29
9139;BME280;4604;48.616;9.548;2024-01-15T02:37:54;95828.31;;;-0.93;81.52
9139;BME280;4604;48.616;9.548;2024-01-15T02:40:22;95814.41;;;-1.04;81.79
9139;BME280;4604;48.616;9.548;2024-01-15T02:42:48;95793.78;;;-1.06;81.24
9139;BME280;4604;48.616;9.548;2024-01-15T02:45:15;95817.94;;;-0.93;81.54
9139;BME280;4604;48.616;9.548;2024-01-15T02:47:42;95809.81;;;-0.87;81.30
9139;BME280;4604;48.616;9.548;2024-01-15T02:50:08;95827.16;;;-1.01;82.06
9139;BME280;4604;48.616;9.548;2024-01-15T02:52:35;95811.28;;;-1.10;82.03
9139;BME280;4604;48.616;9.548;2024-01-15T02:55:02;95820.75;;;-0.96;82.03
9139;BME280;4604;48.616;9.548;2024-01-15T02:57:30;95813.25;;;-1.00;82.27
9139;BME280;4604;48.616;9.548;2024-01-15T02:59:57;95817.81;;;-1.04;81.82
9139;BME280;4604;48.616;9.548;2024-01-15T03:02:23;95821.69;;;-0.97;82.36
9139;BME280;4604;48.616;9.548;2024-01-15T03:04:50;95820.94;;;-0.99;82.34
9139;BME280;4604;48.616;9.548;2024-01-15T03:07:17;95808.75;;;-0.97;82.07
9139;BME280;4604;48.616;9.548;2024-01-15T03:09:43;95819.75;;;-1.08;82.29
9139;BME280;4604;48.616;9.548;2024-01-15T03:12:10;95799.03;;;-1.08;81.78
9139;BME280;4604;48.616;9.548;2024-01-15T03:14:38;95799.00;;;-0.93;81.57
9139;BME280;4604;48.616;9.548;2024-01-15T03:17:05;95815.38;;;-0.93;81.80
9139;BME280;4604;48.616;9.548;2024-01-15T03:19:34;95804.19;;;-0.93;81.71
9139;BME280;4604;48.616;9.548;2024-01-15T03:22:01;95798.66;;;-1.01;82.08
9139;BME280;4604;48.616;9.548;2024-01-15T03:24:29;95805.94;;;-0.94;82.25
9139;BME280;4604;48.616;9.548;2024-01-15T03:26:55;95794.31;;;-1.01;82.01
9139;BME280;4604;48.616;9.548;2024-01-15T03:29:22;95786.84;;;-1.05;81.61
9139;BME280;4604;48.616;9.548;2024-01-15T03:31:50;95787.75;;;-0.92;82.11
9139;BME280;4604;48.616;9.548;2024-01-15T03:34:16;95812.78;;;-0.93;80.90
9139;BME280;4604;48.616;9.548;2024-01-15T03:36:43;95793.78;;;-0.79;79.56
9139;BME280;4604;48.616;9.548;2024-01-15T03:39:10;95782.81;;;-0.82;79.58
9139;BME280;4604;48.616;9.548;2024-01-15T03:41:36;95792.75;;;-0.76;79.28
9139;BME280;4604;48.616;9.548;2024-01-15T03:44:03;95779.94;;;-0.78;79.61
9139;BME280;4604;48.616;9.548;2024-01-15T03:46:30;95783.97;;;-0.74;80.23
9139;BME280;4604;48.616;9.548;2024-01-15T03:48:58;95773.19;;;-0.80;80.05
9139;BME280;4604;48.616;9.548;2024-01-15T03:51:24;95775.41;;;-0.61;78.09
9139;BME280;4604;48.616;9.548;2024-01-15T03:53:51;95782.56;;;-0.65;78.51
9139;BME280;4604;48.616;9.548;2024-01-15T03:56:18;95774.75;;;-0.78;79.49
9139;BME280;4604;48.616;9.548;2024-01-15T03:58:44;95771.13;;;-0.75;79.30
9139;BME280;4604;48.616;9.548;2024-01-15T04:01:12;95759.22;;;-0.78;79.18
9139;BME280;4604;48.616;9.548;2024-01-15T04:03:38;95763.19;;;-0.59;78.99
9139;BME280;4604;48.616;9.548;2024-01-15T04:06:07;95745.53;;;-0.80;79.16
9139;BME280;4604;48.616;9.548;2024-01-15T04:08:33;95760.25;;;-0.68;79.49
9139;BME280;4604;48.616;9.548;2024-01-15T04:11:01;95752.78;;;-0.72;79.53
9139;BME280;4604;48.616;9.548;2024-01-15T04:13:28;95769.44;;;-0.76;80.83
9139;BME280;4604;48.616;9.548;2024-01-15T04:15:54;95769.25;;;-0.73;81.18
9139;BME280;4604;48.616;9.548;2024-01-15T04:18:21;95773.19;;;-0.80;81.86
9139;BME280;4604;48.616;9.548;2024-01-15T04:20:48;95755.59;;;-0.75;82.04
9139;BME280;4604;48.616;9.548;2024-01-15T04:23:16;95747.81;;;-0.75;82.42
9139;BME280;4604;48.616;9.548;2024-01-15T04:25:42;95759.78;;;-0.87;83.56
9139;BME280;4604;48.616;9.548;2024-01-15T04:28:10;95761.22;;;-0.83;83.20
9139;BME280;4604;48.616;9.548;2024-01-15T04:30:36;95750.25;;;-0.87;83.95
9139;BME280;4604;48.616;9.548;2024-01-15T04:33:03;95745.38;;;-0.91;84.17
9139;BME280;4604;48.616;9.548;2024-01-15T04:35:30;95753.03;;;-0.90;84.54
9139;BME280;4604;48.616;9.548;2024-01-15T04:37:57;95752.41;;;-0.93;85.09
9139;BME280;4604;48.616;9.548;2024-01-15T04:40:25;95751.81;;;-0.84;84.71
9139;BME280;4604;48.616;9.548;2024-01-15T04:42:53;95745.03;;;-0.72;83.84
9139;BME280;4604;48.616;9.548;2024-01-15T04:45:19;95750.56;;;-0.78;83.62
9139;BME280;4604;48.616;9.548;2024-01-15T04:47:48;95749.47;;;-0.74;84.05
9139;BME280;4604;48.616;9.548;2024-01-15T04:50:14;95750.94;;;-0.70;82.86
9139;BME280;4604;48.616;9.548;2024-01-15T04:52:41;95752.78;;;-0.72;82.72
9139;BME280;4604;48.616;9.548;2024-01-15T04:55:08;95735.69;;;-0.75;80.92
9139;BME280;4604;48.616;9.548;2024-01-15T04:57:36;95746.81;;;-0.60;81.64
9139;BME280;4604;48.616;9.548;2024-01-15T05:00:03;95746.28;;;-0.65;80.63
9139;BME280;4604;48.616;9.548;2024-01-15T05:02:30;95734.25;;;-0.66;80.35
9139;BME280;4604;48.616;9.548;2024-01-15T05:04:57;95745.97;;;-0.60;79.61
9139;BME280;4604;48.616;9.548;2024-01-15T05:07:23;95732.59;;;-0.67;80.13
9139;BME280;4604;48.616;9.548;2024-01-15T05:09:50;95732.00;;;-0.58;78.86
9139;BME280;4604;48.616;9.548;2024-01-15T05:12:17;95722.38;;;-0.56;76.21
9139;BME280;4604;48.616;9.548;2024-01-15T05:14:45;95727.88;;;-0.48;74.99
9139;BME280;4604;48.616;9.548;2024-01-15T05:17:11;95736.47;;;-0.47;75.23
9139;BME280;4604;48.616;9.548;2024-01-15T05:19:38;95734.00;;;-0.49;76.84
9139;BME280;4604;48.616;9.548;2024-01-15T05:22:05;95729.72;;;-0.50;76.24
9139;BME280;4604;48.616;9.548;2024-01-15T05:24:31;95732.09;;;-0.47;76.69
9139;BME280;4604;48.616;9.548;2024-01-15T05:26:58;95722.69;;;-0.48;77.64
9139;BME280;4604;48.616;9.548;2024-01-15T05:29:25;95720.38;;;-0.52;78.49
9139;BME280;4604;48.616;9.548;2024-01-15T05:31:53;95718.75;;;-0.53;79.15
9139;BME280;4604;48.616;9.548;2024-01-15T05:34:20;95723.72;;;-0.50;76.55
9139;BME280;4604;48.616;9.548;2024-01-15T05:36:46;95722.47;;;-0.45;76.81
9139;BME280;4604;48.616;9.548;2024-01-15T05:39:14;95709.72;;;-0.48;76.96
9139;BME280;4604;48.616;9.548;2024-01-15T05:41:43;95719.66;;;-0.41;74.71
9139;BME280;4604;48.616;9.548;2024-01-15T05:44:10;95712.84;;;-0.43;75.88
9139;BME280;4604;48.616;9.548;2024-01-15T05:46:36;95727.03;;;-0.48;77.75
9139;BME280;4604;48.616;9.548;2024-01-15T05:49:04;95719.47;;;-0.51;77.58
9139;BME280;4604;48.616;9.548;2024-01-15T05:51:31;95724.75;;;-0.40;76.06
9139;BME280;4604;48.616;9.548;2024-01-15T05:53:58;95708.81;;;-0.34;76.13
9139;BME280;4604;48.616;9.548;2024-01-15T05:56:24;95712.97;;;-0.31;74.98
9139;BME280;4604;48.616;9.548;2024-01-15T05:58:51;95693.97;;;-0.45;76.38
9139;BME280;4604;48.616;9.548;2024-01-15T06:01:18;95693.06;;;-0.44;77.10
9139;BME280;4604;48.616;9.548;2024-01-15T06:03:45;95694.09;;;-0.46;77.92
9139;BME280;4604;48.616;9.548;2024-01-15T06:06:13;95708.28;;;-0.39;76.96
9139;BME280;4604;48.616;9.548;2024-01-15T06:08:39;95685.88;;;-0.53;77.07
9139;BME280;4604;48.616;9.548;2024-01-15T06:11:06;95708.47;;;-0.42;77.65
9139;BME280;4604;48.616;9.548;2024-01-15T06:13:33;95699.28;;;-0.46;77.10
9139;BME280;4604;48.616;9.548;2024-01-15T06:15:59;95720.91;;;-0.47;78.01
9139;BME280;4604;48.616;9.548;2024-01-15T06:18:26;95720.19;;;-0.49;77.47
9139;BME280;4604;48.616;9.548;2024-01-15T06:20:53;95707.22;;;-0.62;77.97
9139;BME280;4604;48.616;9.548;2024-01-15T06:23:21;95697.06;;;-0.52;78.76
9139;BME280;4604;48.616;9.548;2024-01-15T06:25:47;95710.00;;;-0.65;77.20
9139;BME280;4604;48.616;9.548;2024-01-15T06:28:14;95709.41;;;-0.56;77.46
9139;BME280;4604;48.616;9.548;2024-01-15T06:30:41;95698.31;;;-0.45;77.64
9139;BME280;4604;48.616;9.548;2024-01-15T06:33:07;95704.25;;;-0.30;76.98
9139;BME280;4604;48.616;9.548;2024-01-15T06:35:34;95707.75;;;-0.44;76.46
9139;BME280;4604;48.616;9.548;2024-01-15T06:38:01;95703.81;;;-0.37;76.28
9139;BME280;4604;48.616;9.548;2024-01-15T06:40:29;95704.88;;;-0.27;75.58
9139;BME280;4604;48.616;9.548;2024-01-15T06:42:56;95706.94;;;-0.32;74.81
9139;BME280;4604;48.616;9.548;2024-01-15T06:45:22;95702.59;;;-0.31;74.84
9139;BME280;4604;48.616;9.548;2024-01-15T06:47:49;95705.50;;;-0.23;73.35
9139;BME280;4604;48.616;9.548;2024-01-15T06:50:16;95698.66;;;-0.24;74.10
9139;BME280;4604;48.616;9.548;2024-01-15T06:52:42;95703.63;;;-0.21;74.39
9139;BME280;4604;48.616;9.548;2024-01-15T06:55:09;95696.38;;;-0.29;74.63
9139;BME280;4604;48.616;9.548;2024-01-15T06:57:37;95706.09;;;-0.32;76.03
9139;BME280;4604;48.616;9.548;2024-01-15T07:00:07;95712.31;;;-0.35;74.61
9139;BME280;4604;48.616;9.548;2024-01-15T07:02:34;95696.69;;;-0.46;75.10
9139;BME280;4604;48.616;9.548;2024-01-15T07:05:01;95701.44;;;-0.40;74.80
9139;BME280;4604;48.616;9.548;2024-01-15T07:07:30;95702.56;;;-0.44;75.27
9139;BME280;4604;48.616;9.548;2024-01-15T07:09:57;95703.13;;;-0.39;75.16
9139;BME280;4604;48.616;9.548;2024-01-15T07:12:23;95705.28;;;-0.33;74.40
9139;BME280;4604;48.616;9.548;2024-01-15T07:14:51;95698.97;;;-0.29;74.65
9139;BME280;4604;48.616;9.548;2024-01-15T07:17:18;95704.53;;;-0.35;74.31
9139;BME280;4604;48.616;9.548;2024-01-15T07:19:45;95694.28;;;-0.24;73.50
9139;BME280;4604;48.616;9.548;2024-01-15T07:22:11;95693.66;;;-0.27;74.02
9139;BME280;4604;48.616;9.548;2024-01-15T07:24:38;95696.56;;;-0.32;73.06
9139;BME280;4604;48.616;9.548;2024-01-15T07:27:06;95694.50;;;-0.27;73.86
9139;BME280;4604;48.616;9.548;2024-01-15T07:29:33;95702.50;;;-0.17;72.38
9139;BME280;4604;48.616;9.548;2024-01-15T07:32:04;95703.94;;;-0.26;71.44
9139;BME280;4604;48.616;9.548;2024-01-15T07:34:33;95708.59;;;-0.18;70.17
9139;BME280;4604;48.616;9.548;2024-01-15T07:36:59;95694.72;;;-0.17;69.93
9139;BME280;4604;48.616;9.548;2024-01-15T07:39:26;95692.31;;;-0.07;70.42
9139;BME280;4604;48.616;9.548;2024-01-15T07:41:54;95693.25;;;-0.08;70.23
9139;BME280;4604;48.616;9.548;2024-01-15T07:44:21;95685.66;;;0.02;67.76
9139;BME280;4604;48.616;9.548;2024-01-15T07:46:47;95687.34;;;0.03;68.37
9139;BME280;4604;48.616;9.548;2024-01-15T07:49:15;95695.31;;;-0.01;67.49
9139;BME280;4604;48.616;9.548;2024-01-15T07:51:43;95689.59;;;0.07;65.73
9139;BME280;4604;48.616;9.548;2024-01-15T07:54:10;95692.50;;;0.15;65.15
9139;BME280;4604;48.616;9.548;2024-01-15T07:56:55;95692.47;;;0.28;63.27
9139;BME280;4604;48.616;9.548;2024-01-15T07:59:22;95698.31;;;0.32;62.15
9139;BME280;4604;48.616;9.548;2024-01-15T08:01:49;95693.34;;;0.53;61.80
9139;BME280;4604;48.616;9.548;2024-01-15T08:04:17;95697.00;;;0.50;59.09
9139;BME280;4604;48.616;9.548;2024-01-15T08:06:44;95696.59;;;0.43;60.10
9139;BME280;4604;48.616;9.548;2024-01-15T08:09:11;95687.75;;;0.46;59.48
9139;BME280;4604;48.616;9.548;2024-01-15T08:11:39;95689.03;;;0.40;59.27
9139;BME280;4604;48.616;9.548;2024-01-15T08:14:07;95684.56;;;0.42;58.93
9139;BME280;4604;48.616;9.548;2024-01-15T08:16:34;95666.97;;;0.59;59.86
9139;BME280;4604;48.616;9.548;2024-01-15T08:19:01;95672.88;;;0.85;58.77
9139;BME280;4604;48.616;9.548;2024-01-15T08:21:29;95685.31;;;0.69;57.95
9139;BME280;4604;48.616;9.548;2024-01-15T08:23:57;95691.03;;;0.61;58.89
9139;BME280;4604;48.616;9.548;2024-01-15T08:26:24;95682.97;;;0.53;58.02
9139;BME280;4604;48.616;9.548;2024-01-15T08:28:50;95689.06;;;0.64;57.15
9139;BME280;4604;48.616;9.548;2024-01-15T08:31:17;95693.25;;;0.54;57.61
9139;BME280;4604;48.616;9.548;2024-01-15T08:33:44;95688.06;;;0.54;59.06
9139;BME280;4604;48.616;9.548;2024-01-15T08:36:11;95685.38;;;0.43;58.32
9139;BME280;4604;48.616;9.548;2024-01-15T08:38:39;95694.41;;;0.50;58.64
9139;BME280;4604;48.616;9.548;2024-01-15T08:41:06;95692.53;;;0.52;59.09
9139;BME280;4604;48.616;9.548;2024-01-15T08:43:33;95694.31;;;0.52;57.73
9139;BME280;4604;48.616;9.548;2024-01-15T08:46:00;95699.69;;;0.49;59.33
9139;BME280;4604;48.616;9.548;2024-01-15T08:48:28;95688.19;;;0.40;59.06
9139;BME280;4604;48.616;9.548;2024-01-15T08:50:54;95698.03;;;0.48;59.77
9139;BME280;4604;48.616;9.548;2024-01-15T08:53:22;95707.09;;;0.42;59.89
9139;BME280;4604;48.616;9.548;2024-01-15T08:55:50;95710.41;;;0.31;60.27
9139;BME280;4604;48.616;9.548;2024-01-15T08:58:17;95704.19;;;0.34;60.40
9139;BME280;4604;48.616;9.548;2024-01-15T09:00:44;95715.06;;;0.39;60.95
9139;BME280;4604;48.616;9.548;2024-01-15T09:03:11;95701.91;;;0.42;60.42
9139;BME280;4604;48.616;9.548;2024-01-15T09:05:37;95709.97;;;0.50;60.93
9139;BME280;4604;48.616;9.548;2024-01-15T09:08:06;95705.41;;;0.41;59.81
9139;BME280;4604;48.616;9.548;2024-01-15T09:10:32;95703.13;;;0.49;60.87
9139;BME280;4604;48.616;9.548;2024-01-15T09:13:00;95707.38;;;0.50;61.68
9139;BME280;4604;48.616;9.548;2024-01-15T09:15:29;95713.50;;;0.49;62.23
9139;BME280;4604;48.616;9.548;2024-01-15T09:17:56;95722.00;;;0.64;61.91
9139;BME280;4604;48.616;9.548;2024-01-15T09:20:24;95719.72;;;0.59;60.99
9139;BME280;4604;48.616;9.548;2024-01-15T09:22:51;95704.13;;;0.59;62.60
9139;BME280;4604;48.616;9.548;2024-01-15T09:25:18;95711.59;;;0.64;63.05
9139;BME280;4604;48.616;9.548;2024-01-15T09:27:45;95710.78;;;0.51;63.64
9139;BME280;4604;48.616;9.548;2024-01-15T09:30:14;95710.06;;;0.61;64.17
9139;BME280;4604;48.616;9.548;2024-01-15T09:32:41;95709.44;;;0.58;64.12
9139;BME280;4604;48.616;9.548;2024-01-15T09:35:08;95696.72;;;0.42;65.23
9139;BME280;4604;48.616;9.548;2024-01-15T09:37:35;95697.00;;;0.50;65.09
9139;BME280;4604;48.616;9.548;2024-01-15T09:40:03;95682.75;;;0.56;64.41
9139;BME280;4604;48.616;9.548;2024-01-15T09:42:30;95680.38;;;0.53;64.15
9139;BME280;4604;48.616;9.548;2024-01-15T09:44:57;95680.09;;;0.45;64.94
9139;BME280;4604;48.616;9.548;2024-01-15T09:47:26;95684.06;;;0.37;65.60
9139;BME280;4604;48.616;9.548;2024-01-15T09:49:52;95673.09;;;0.58;64.28
9139;BME280;4604;48.616;9.548;2024-01-15T09:52:19;95662.53;;;0.72;63.36
9139;BME280;4604;48.616;9.548;2024-01-15T09:54:47;95664.97;;;0.87;62.50
9139;BME280;4604;48.616;9.548;2024-01-15T09:57:15;95659.22;;;0.70;61.59
9139;BME280;4604;48.616;9.548;2024-01-15T09:59:44;95657.59;;;0.69;63.21
9139;BME280;4604;48.616;9.548;2024-01-15T10:02:13;95654.59;;;0.87;60.88
9139;BME280;4604;48.616;9.548;2024-01-15T10:04:45;95648.69;;;0.84;60.65
9139;BME280;4604;48.616;9.548;2024-01-15T10:07:15;95661.09;;;0.92;60.33
9139;BME280;4604;48.616;9.548;2024-01-15T10:09:42;95647.63;;;0.87;59.86
9139;BME280;4604;48.616;9.548;2024-01-15T10:12:09;95647.69;;;0.98;59.96
9139;BME280;4604;48.616;9.548;2024-01-15T10:14:36;95653.84;;;1.09;59.86
9139;BME280;4604;48.616;9.548;2024-01-15T10:17:12;95636.09;;;1.02;59.76
9139;BME280;4604;48.616;9.548;2024-01-15T10:19:38;95638.28;;;1.09;58.95
9139;BME280;4604;48.616;9.548;2024-01-15T10:22:08;95646.16;;;1.07;57.94
9139;BME280;4604;48.616;9.548;2024-01-15T10:24:40;95644.91;;;1.13;58.30
9139;BME280;4604;48.616;9.548;2024-01-15T10:27:07;95644.19;;;1.11;58.64
9139;BME280;4604;48.616;9.548;2024-01-15T10:29:37;95623.41;;;1.11;59.24
9139;BME280;4604;48.616;9.548;2024-01-15T10:32:06;95630.97;;;1.14;58.74
9139;BME280;4604;48.616;9.548;2024-01-15T10:34:33;95619.13;;;1.10;58.40
9139;BME280;4604;48.616;9.548;2024-01-15T10:37:03;95603.97;;;1.39;59.15
9139;BME280;4604;48.616;9.548;2024-01-15T10:39:31;95619.41;;;1.29;58.88
9139;BME280;4604;48.616;9.548;2024-01-15T10:41:58;95622.53;;;1.34;58.36
9139;BME280;4604;48.616;9.548;2024-01-15T10:44:25;95613.09;;;1.44;58.67
9139;BME280;4604;48.616;9.548;2024-01-15T10:46:52;95615.28;;;1.26;59.00
9139;BME280;4604;48.616;9.548;2024-01-15T10:49:20;95616.13;;;1.27;59.47
9139;BME280;4604;48.616;9.548;2024-01-15T10:51:47;95609.75;;;1.20;60.02
9139;BME280;4604;48.616;9.548;2024-01-15T10:54:15;95602.00;;;1.07;59.60
9139;BME280;4604;48.616;9.548;2024-01-15T10:56:45;95612.44;;;1.18;60.12
9139;BME280;4604;48.616;9.548;2024-01-15T10:59:13;95604.78;;;1.28;60.21
9139;BME280;4604;48.616;9.548;2024-01-15T11:01:41;95617.41;;;1.21;60.66
9139;BME280;4604;48.616;9.548;2024-01-15T11:04:09;95616.53;;;1.10;61.63
9139;BME280;4604;48.616;9.548;2024-01-15T11:06:43;95608.78;;;1.21;61.87
9139;BME280;4604;48.616;9.548;2024-01-15T11:09:12;95616.78;;;1.06;62.37
9139;BME280;4604;48.616;9.548;2024-01-15T11:11:41;95607.13;;;1.20;62.34
9139;BME280;4604;48.616;9.548;2024-01-15T11:14:09;95590.81;;;1.18;62.91
9139;BME280;4604;48.616;9.548;2024-01-15T11:16:55;95594.81;;;1.11;61.94
9139;BME280;4604;48.616;9.548;2024-01-15T11:19:24;95598.38;;;1.21;62.23
9139;BME280;4604;48.616;9.548;2024-01-15T11:21:51;95606.28;;;1.19;62.83
9139;BME280;4604;48.616;9.548;2024-01-15T11:24:34;95606.78;;;1.24;62.63
9139;BME280;4604;48.616;9.548;2024-01-15T11:27:02;95601.22;;;1.29;63.17
9139;BME280;4604;48.616;9.548;2024-01-15T11:29:31;95605.34;;;1.20;63.02
9139;BME280;4604;48.616;9.548;2024-01-15T11:32:01;95606.19;;;1.21;63.38
9139;BME280;4604;48.616;9.548;2024-01-15T11:34:53;95604.88;;;1.26;63.89
9139;BME280;4604;48.616;9.548;2024-01-15T11:37:21;95596.59;;;1.10;65.25
9139;BME280;4604;48.616;9.548;2024-01-15T11:39:51;95589.97;;;1.06;66.05
9139;BME280;4604;48.616;9.548;2024-01-15T11:42:19;95585.03;;;1.14;66.25
9139;BME280;4604;48.616;9.548;2024-01-15T11:44:49;95577.47;;;1.11;65.70
9139;BME280;4604;48.616;9.548;2024-01-15T11:47:15;95564.94;;;1.05;66.04
9139;BME280;4604;48.616;9.548;2024-01-15T11:50:06;95569.28;;;1.04;65.66
9139;BME280;4604;48.616;9.548;2024-01-15T11:52:35;95557.50;;;1.12;66.29
9139;BME280;4604;48.616;9.548;2024-01-15T11:55:10;95547.50;;;1.30;64.56
9139;BME280;4604;48.616;9.548;2024-01-15T11:57:41;95562.75;;;1.45;63.28
9139;BME280;4604;48.616;9.548;2024-01-15T12:00:12;95550.22;;;1.39;64.12
9139;BME280;4604;48.616;9.548;2024-01-15T12:02:39;95561.69;;;1.48;64.06
9139;BME280;4604;48.616;9.548;2024-01-15T12:05:07;95547.75;;;1.38;65.16
9139;BME280;4604;48.616;9.548;2024-01-15T12:07:34;95562.50;;;1.48;64.99
9139;BME280;4604;48.616;9.548;2024-01-15T12:10:01;95556.38;;;1.49;64.66
9139;BME280;4604;48.616;9.548;2024-01-15T12:12:34;95578.81;;;1.39;64.33
9139;BME280;4604;48.616;9.548;2024-01-15T12:15:04;95572.31;;;1.45;65.17
9139;BME280;4604;48.616;9.548;2024-01-15T12:17:32;95565.56;;;1.31;66.32
9139;BME280;4604;48.616;9.548;2024-01-15T12:19:59;95564.72;;;1.08;69.48
9139;BME280;4604;48.616;9.548;2024-01-15T12:22:26;95574.38;;;1.06;71.92
9139;BME280;4604;48.616;9.548;2024-01-15T12:24:53;95567.06;;;1.11;73.01
9139;BME280;4604;48.616;9.548;2024-01-15T12:27:20;95568.31;;;0.83;76.76
9139;BME280;4604;48.616;9.548;2024-01-15T12:29:47;95563.38;;;0.91;76.70
9139;BME280;4604;48.616;9.548;2024-01-15T12:32:14;95557.69;;;0.86;77.42
9139;BME280;4604;48.616;9.548;2024-01-15T12:34:42;95615.16;;;0.81;76.74
9139;BME280;4604;48.616;9.548;2024-01-15T12:37:09;95582.22;;;0.82;75.85
9139;BME280;4604;48.616;9.548;2024-01-15T12:39:37;95600.63;;;0.79;75.96
9139;BME280;4604;48.616;9.548;2024-01-15T12:42:04;95568.47;;;0.93;76.51
9139;BME280;4604;48.616;9.548;2024-01-15T12:44:32;95580.72;;;0.91;77.44
9139;BME280;4604;48.616;9.548;2024-01-15T12:46:58;95572.56;;;0.84;78.67
9139;BME280;4604;48.616;9.548;2024-01-15T12:49:26;95579.34;;;0.98;79.12
9139;BME280;4604;48.616;9.548;2024-01-15T12:51:54;95562.91;;;0.97;79.61
9139;BME280;4604;48.616;9.548;2024-01-15T12:54:23;95574.28;;;0.72;82.31
9139;BME280;4604;48.616;9.548;2024-01-15T12:56:50;95584.06;;;0.69;82.37
9139;BME280;4604;48.616;9.548;2024-01-15T12:59:17;95591.44;;;0.86;80.13
9139;BME280;4604;48.616;9.548;2024-01-15T13:01:44;95565.56;;;0.73;80.96
9139;BME280;4604;48.616;9.548;2024-01-15T13:04:11;95569.66;;;0.64;83.38
9139;BME280;4604;48.616;9.548;2024-01-15T13:06:37;95578.31;;;0.76;87.72
9139;BME280;4604;48.616;9.548;2024-01-15T13:09:05;95584.56;;;0.74;87.82
9139;BME280;4604;48.616;9.548;2024-01-15T13:11:32;95590.97;;;0.57;89.51
9139;BME280;4604;48.616;9.548;2024-01-15T13:13:59;95587.81;;;0.64;88.87
9139;BME280;4604;48.616;9.548;2024-01-15T13:16:26;95593.59;;;0.68;89.90
9139;BME280;4604;48.616;9.548;2024-01-15T13:18:54;95586.28;;;0.62;92.17
9139;BME280;4604;48.616;9.548;2024-01-15T13:21:22;95587.41;;;0.47;95.33
9139;BME280;4604;48.616;9.548;2024-01-15T13:23:48;95589.44;;;0.54;95.98
9139;BME280;4604;48.616;9.548;2024-01-15T13:26:16;95593.91;;;0.52;96.31
9139;BME280;4604;48.616;9.548;2024-01-15T13:28:44;95597.28;;;0.41;95.61